createdAt,value
2019-03-05T00:01:25.326Z,48.30
2019-03-05T00:03:51.823Z,48.20
2019-03-05T00:06:21.202Z,48.10
2019-03-05T00:08:47.634Z,47.80
2019-03-05T00:11:13.898Z,48.00
2019-03-05T00:13:40.199Z,48.00
2019-03-05T00:16:07.007Z,48.00
2019-03-05T00:18:33.401Z,47.80
2019-03-05T00:20:59.766Z,47.90
2019-03-05T00:23:48.346Z,48.00
2019-03-05T00:26:17.119Z,47.90
2019-03-05T00:28:53.266Z,47.50
2019-03-05T00:31:29.434Z,47.70
2019-03-05T00:34:17.992Z,47.70
2019-03-05T00:36:50.783Z,47.80
2019-03-05T00:39:23.928Z,47.60
2019-03-05T00:42:06.337Z,47.30
2019-03-05T00:44:36.461Z,47.40
2019-03-05T00:47:22.378Z,47.40
2019-03-05T00:50:19.622Z,47.00
2019-03-05T00:53:09.614Z,47.20
2019-03-05T00:55:39.718Z,47.30
2019-03-05T00:58:12.926Z,47.30
2019-03-05T01:01:07.319Z,47.30
2019-03-05T01:03:54.879Z,47.30
2019-03-05T01:06:25.852Z,47.30
2019-03-05T01:08:54.719Z,47.40
2019-03-05T01:11:21.939Z,47.50
2019-03-05T01:13:48.775Z,47.50
2019-03-05T01:16:17.080Z,47.50
2019-03-05T01:18:43.347Z,47.40
2019-03-05T01:21:09.913Z,47.50
2019-03-05T01:23:36.757Z,47.40
2019-03-05T01:26:03.430Z,47.50
2019-03-05T01:28:29.843Z,47.50
2019-03-05T01:31:15.107Z,47.30
2019-03-05T01:33:49.075Z,47.10
2019-03-05T01:36:17.451Z,47.30
2019-03-05T01:38:48.441Z,47.30
2019-03-05T01:41:15.207Z,47.40
2019-03-05T01:43:42.831Z,47.50
2019-03-05T01:46:09.218Z,47.70
2019-03-05T01:48:35.604Z,47.90
2019-03-05T01:51:02.271Z,47.70
2019-03-05T01:53:28.555Z,47.50
2019-03-05T01:55:54.918Z,47.50
2019-03-05T01:58:21.206Z,47.70
2019-03-05T02:00:47.673Z,47.90
2019-03-05T02:03:14.154Z,47.90
2019-03-05T02:05:40.626Z,48.10
2019-03-05T02:08:07.579Z,48.20
2019-03-05T02:10:33.941Z,48.70
2019-03-05T02:13:00.239Z,49.20
2019-03-05T02:15:26.885Z,49.50
2019-03-05T02:17:53.411Z,49.50
2019-03-05T02:20:22.406Z,49.40
2019-03-05T02:23:04.787Z,49.70
2019-03-05T02:25:37.648Z,49.90
2019-03-05T02:28:18.047Z,49.70
2019-03-05T02:31:05.778Z,49.90
2019-03-05T02:33:45.000Z,50.40
2019-03-05T02:36:48.350Z,50.30
2019-03-05T02:39:30.816Z,50.40
2019-03-05T02:42:23.924Z,50.70
2019-03-05T02:45:31.567Z,50.80
2019-03-05T02:48:06.551Z,51.00
2019-03-05T02:50:42.750Z,51.30
2019-03-05T02:53:15.972Z,51.40
2019-03-05T02:56:21.590Z,51.40
2019-03-05T02:58:48.071Z,51.70
2019-03-05T03:01:28.534Z,51.60
2019-03-05T03:03:57.017Z,51.60
2019-03-05T03:06:25.401Z,51.70
2019-03-05T03:08:55.496Z,52.00
2019-03-05T03:11:22.355Z,52.10
2019-03-05T03:13:49.408Z,51.80
2019-03-05T03:16:15.699Z,51.90
2019-03-05T03:18:42.067Z,52.50
2019-03-05T03:21:08.356Z,51.90
2019-03-05T03:23:34.621Z,52.10
2019-03-05T03:26:01.077Z,52.00
2019-03-05T03:28:27.442Z,52.00
2019-03-05T03:30:53.857Z,51.90
2019-03-05T03:33:20.218Z,52.10
2019-03-05T03:35:46.892Z,52.40
2019-03-05T03:38:13.254Z,52.10
2019-03-05T03:40:39.794Z,52.30
2019-03-05T03:43:06.173Z,52.10
2019-03-05T03:45:32.582Z,52.40
2019-03-05T03:47:59.267Z,52.20
2019-03-05T03:50:25.749Z,52.30
2019-03-05T03:52:52.128Z,52.00
2019-03-05T03:55:18.509Z,52.20
2019-03-05T03:57:45.415Z,52.10
2019-03-05T04:00:14.980Z,52.20
2019-03-05T04:02:41.459Z,52.10
2019-03-05T04:05:08.293Z,52.60
2019-03-05T04:07:34.804Z,52.60
2019-03-05T04:10:01.292Z,52.30
2019-03-05T04:12:27.644Z,53.00
2019-03-05T04:14:53.934Z,52.80
2019-03-05T04:17:20.326Z,52.60
2019-03-05T04:19:46.691Z,52.50
2019-03-05T04:22:12.988Z,52.50
2019-03-05T04:24:39.561Z,52.90
2019-03-05T04:27:05.931Z,53.10
2019-03-05T04:29:32.476Z,52.80
2019-03-05T04:31:59.062Z,53.10
2019-03-05T04:34:25.810Z,52.80
2019-03-05T04:36:52.134Z,52.80
2019-03-05T04:39:18.422Z,52.90
2019-03-05T04:41:44.683Z,52.80
2019-03-05T04:44:13.971Z,52.80
2019-03-05T04:46:40.762Z,52.60
2019-03-05T04:49:18.189Z,52.80
2019-03-05T04:51:55.621Z,52.90
2019-03-05T04:54:22.358Z,52.60
2019-03-05T04:56:48.614Z,52.50
2019-03-05T04:59:14.906Z,52.50
2019-03-05T05:01:41.551Z,52.50
2019-03-05T05:04:07.830Z,52.40
2019-03-05T05:06:34.099Z,52.40
2019-03-05T05:09:01.059Z,52.50
2019-03-05T05:11:29.538Z,52.70
2019-03-05T05:13:55.814Z,52.70
2019-03-05T05:16:22.094Z,53.00
2019-03-05T05:18:48.634Z,52.90
2019-03-05T05:21:14.923Z,52.90
2019-03-05T05:23:41.230Z,52.60
2019-03-05T05:26:07.926Z,52.60
2019-03-05T05:28:34.197Z,52.60
2019-03-05T05:31:00.915Z,52.70
2019-03-05T05:33:27.391Z,52.60
2019-03-05T05:35:53.678Z,52.50
2019-03-05T05:38:19.958Z,52.60
2019-03-05T05:40:46.745Z,52.50
2019-03-05T05:43:25.775Z,52.50
2019-03-05T05:45:52.705Z,52.50
2019-03-05T05:48:19.271Z,52.60
2019-03-05T05:50:45.991Z,52.40
2019-03-05T05:53:12.375Z,52.60
2019-03-05T05:55:38.750Z,52.60
2019-03-05T05:58:05.244Z,52.40
2019-03-05T06:00:32.423Z,52.40
2019-03-05T06:02:58.803Z,52.50
2019-03-05T06:05:25.175Z,52.50
2019-03-05T06:07:51.471Z,52.60
2019-03-05T06:10:17.940Z,52.40
2019-03-05T06:12:44.512Z,52.30
2019-03-05T06:15:14.560Z,52.30
2019-03-05T06:17:40.871Z,52.20
2019-03-05T06:20:11.204Z,52.30
2019-03-05T06:22:37.814Z,52.30
2019-03-05T06:25:05.897Z,52.10
2019-03-05T06:27:32.387Z,52.10
2019-03-05T06:29:58.762Z,52.30
2019-03-05T06:32:25.177Z,52.10
2019-03-05T06:34:51.823Z,52.10
2019-03-05T06:37:18.220Z,52.20
2019-03-05T06:39:44.578Z,52.10
2019-03-05T06:42:10.876Z,52.10
2019-03-05T06:44:37.136Z,52.20
2019-03-05T06:47:03.551Z,52.20
2019-03-05T06:49:29.914Z,52.20
2019-03-05T06:51:57.378Z,52.20
2019-03-05T06:54:24.010Z,52.20
2019-03-05T06:56:50.647Z,52.10
2019-03-05T06:59:17.038Z,52.30
2019-03-05T07:01:43.611Z,52.20
2019-03-05T07:04:10.360Z,52.20
2019-03-05T07:06:47.671Z,52.00
2019-03-05T07:09:29.372Z,52.20
2019-03-05T07:11:59.762Z,52.40
2019-03-05T07:14:49.416Z,52.50
2019-03-05T07:17:34.710Z,52.40
2019-03-05T07:20:10.374Z,52.30
2019-03-05T07:22:46.554Z,52.70
2019-03-05T07:25:12.942Z,52.80
2019-03-05T07:27:39.403Z,52.60
2019-03-05T07:30:09.520Z,52.70
2019-03-05T07:32:36.152Z,52.80
2019-03-05T07:35:05.316Z,53.10
2019-03-05T07:37:31.731Z,53.00
2019-03-05T07:39:58.219Z,52.90
2019-03-05T07:42:24.493Z,53.20
2019-03-05T07:44:50.867Z,52.90
2019-03-05T07:47:17.162Z,53.10
2019-03-05T07:49:44.377Z,53.30
2019-03-05T07:52:10.812Z,52.80
2019-03-05T07:54:38.274Z,53.00
2019-03-05T07:57:04.875Z,53.10
2019-03-05T07:59:31.381Z,53.10
2019-03-05T08:01:57.671Z,53.10
2019-03-05T08:04:24.286Z,53.00
2019-03-05T08:06:50.579Z,53.10
2019-03-05T08:09:34.014Z,53.20
2019-03-05T08:12:13.015Z,53.20
2019-03-05T08:14:43.159Z,53.10
2019-03-05T08:17:09.479Z,53.20
2019-03-05T08:19:35.975Z,53.40
2019-03-05T08:22:04.042Z,53.40
2019-03-05T08:24:30.397Z,53.40
2019-03-05T08:26:57.118Z,53.50
2019-03-05T08:29:23.579Z,53.50
2019-03-05T08:31:50.900Z,53.70
2019-03-05T08:34:17.286Z,53.60
2019-03-05T08:36:43.558Z,53.70
2019-03-05T08:39:10.134Z,53.70
2019-03-05T08:41:36.608Z,53.60
2019-03-05T08:44:03.296Z,53.50
2019-03-05T08:46:29.907Z,53.40
2019-03-05T08:48:56.221Z,53.90
2019-03-05T08:51:22.874Z,53.60
2019-03-05T08:53:50.029Z,53.60
2019-03-05T08:56:16.524Z,53.70
2019-03-05T08:58:43.203Z,53.80
2019-03-05T09:01:09.933Z,54.50
2019-03-05T09:03:37.232Z,54.20
2019-03-05T09:06:03.795Z,54.70
2019-03-05T09:08:30.670Z,54.30
2019-03-05T09:10:57.319Z,54.60
2019-03-05T09:13:32.300Z,54.70
2019-03-05T09:15:52.548Z,55.00
2019-03-05T09:18:19.375Z,55.00
2019-03-05T09:20:45.954Z,54.70
2019-03-05T09:23:12.237Z,55.00
2019-03-05T09:25:38.635Z,55.50
2019-03-05T09:28:07.252Z,54.80
2019-03-05T09:30:33.333Z,54.70
2019-03-05T09:32:59.699Z,54.60
2019-03-05T09:35:26.099Z,55.00
2019-03-05T09:37:53.675Z,54.80
2019-03-05T09:40:23.031Z,54.60
2019-03-05T09:42:50.710Z,54.70
2019-03-05T09:45:18.708Z,54.80
2019-03-05T09:47:45.485Z,54.60
2019-03-05T09:50:14.001Z,54.80
2019-03-05T09:52:40.611Z,54.40
2019-03-05T09:55:10.387Z,54.40
2019-03-05T09:57:38.774Z,54.60
2019-03-05T10:00:09.131Z,54.80
2019-03-05T10:02:36.436Z,54.70
2019-03-05T10:05:06.260Z,54.70
2019-03-05T10:07:33.646Z,54.70
2019-03-05T10:10:00.361Z,54.50
2019-03-05T10:12:26.779Z,54.40
2019-03-05T10:14:53.034Z,54.40
2019-03-05T10:17:19.325Z,54.60
2019-03-05T10:19:46.025Z,54.60
2019-03-05T10:22:12.524Z,54.50
2019-03-05T10:24:38.996Z,54.30
2019-03-05T10:27:05.653Z,54.10
2019-03-05T10:29:32.482Z,54.00
2019-03-05T10:31:58.791Z,54.00
2019-03-05T10:34:25.439Z,53.90
2019-03-05T10:36:52.487Z,53.90
2019-03-05T10:39:29.937Z,53.80
2019-03-05T10:41:50.272Z,53.80
2019-03-05T10:44:16.927Z,53.70
2019-03-05T10:46:43.882Z,53.70
2019-03-05T10:49:10.187Z,53.90
2019-03-05T10:51:36.446Z,53.90
2019-03-05T10:54:03.768Z,54.00
2019-03-05T10:56:30.243Z,53.90
2019-03-05T10:58:56.526Z,53.80
2019-03-05T11:01:23.207Z,53.80
2019-03-05T11:03:49.700Z,53.90
2019-03-05T11:06:16.211Z,53.80
2019-03-05T11:08:42.894Z,53.80
2019-03-05T11:11:13.457Z,53.70
2019-03-05T11:13:37.799Z,53.40
2019-03-05T11:16:04.367Z,53.40
2019-03-05T11:18:31.080Z,53.40
2019-03-05T11:20:57.645Z,53.30
2019-03-05T11:23:24.248Z,53.20
2019-03-05T11:25:50.610Z,53.30
2019-03-05T11:28:17.088Z,53.20
2019-03-05T11:30:43.798Z,53.30
2019-03-05T11:33:10.794Z,53.40
2019-03-05T11:35:37.388Z,53.50
2019-03-05T11:38:04.182Z,53.30
2019-03-05T11:40:30.753Z,53.50
2019-03-05T11:42:59.115Z,53.30
2019-03-05T11:45:26.711Z,53.30
2019-03-05T11:47:54.379Z,53.30
2019-03-05T11:50:21.294Z,53.30
2019-03-05T11:52:48.511Z,53.30
2019-03-05T11:55:20.475Z,53.60
2019-03-05T11:57:47.334Z,54.00
2019-03-05T12:00:25.010Z,54.70
2019-03-05T12:02:52.670Z,54.90
2019-03-05T12:05:19.153Z,54.90
2019-03-05T12:07:46.206Z,54.70
2019-03-05T12:10:19.695Z,55.00
2019-03-05T12:12:46.382Z,54.30
2019-03-05T12:15:15.903Z,54.00
2019-03-05T12:17:43.403Z,54.20
2019-03-05T12:20:12.053Z,54.00
2019-03-05T12:22:38.889Z,53.90
2019-03-05T12:25:09.071Z,53.80
2019-03-05T12:27:36.028Z,53.70
2019-03-05T12:30:05.667Z,53.70
2019-03-05T12:32:33.915Z,53.50
2019-03-05T12:35:00.287Z,53.40
2019-03-05T12:37:27.118Z,53.40
2019-03-05T12:39:53.650Z,53.50
2019-03-05T12:42:20.147Z,53.40
2019-03-05T12:44:47.441Z,53.50
2019-03-05T12:47:15.846Z,53.40
2019-03-05T12:49:42.103Z,53.40
2019-03-05T12:52:08.376Z,53.50
2019-03-05T12:54:34.663Z,53.70
2019-03-05T12:57:00.974Z,53.70
2019-03-05T12:59:27.579Z,54.20
2019-03-05T13:01:54.234Z,53.70
2019-03-05T13:04:20.854Z,53.60
2019-03-05T13:06:47.116Z,53.70
2019-03-05T13:09:17.873Z,53.80
2019-03-05T13:11:46.609Z,53.20
2019-03-05T13:14:12.921Z,53.40
2019-03-05T13:16:39.663Z,53.30
2019-03-05T13:19:09.457Z,53.20
2019-03-05T13:21:35.283Z,53.10
2019-03-05T13:24:02.052Z,53.10
2019-03-05T13:26:28.615Z,52.50
2019-03-05T13:28:55.010Z,52.70
2019-03-05T13:31:21.397Z,52.80
2019-03-05T13:33:47.795Z,53.00
2019-03-05T13:36:16.510Z,52.90
2019-03-05T13:38:45.367Z,52.80
2019-03-05T13:41:12.229Z,52.60
2019-03-05T13:43:39.231Z,52.50
2019-03-05T13:46:05.526Z,52.40
2019-03-05T13:48:38.875Z,52.20
2019-03-05T13:51:23.190Z,52.30
2019-03-05T13:54:21.327Z,52.20
2019-03-05T13:57:18.595Z,51.90
2019-03-05T13:59:47.674Z,51.70
2019-03-05T14:02:17.557Z,51.60
2019-03-05T14:04:56.462Z,51.90
2019-03-05T14:08:00.117Z,53.50
2019-03-05T14:10:26.576Z,54.90
2019-03-05T14:12:54.274Z,56.00
2019-03-05T14:15:20.951Z,56.20
2019-03-05T14:17:47.419Z,56.40
2019-03-05T14:20:15.138Z,55.80
2019-03-05T14:22:41.513Z,55.50
2019-03-05T14:25:13.754Z,54.40
2019-03-05T14:27:40.344Z,54.40
2019-03-05T14:30:10.698Z,52.40
2019-03-05T14:32:37.095Z,53.20
2019-03-05T14:35:06.766Z,52.80
2019-03-05T14:37:33.381Z,52.10
2019-03-05T14:40:19.118Z,48.90
2019-03-05T14:42:29.754Z,49.30
2019-03-05T14:44:56.577Z,48.80
2019-03-05T14:47:23.258Z,46.70
2019-03-05T14:49:49.753Z,47.70
2019-03-05T14:52:16.074Z,47.60
2019-03-05T14:54:42.735Z,47.80
2019-03-05T14:57:09.257Z,47.80
2019-03-05T14:59:35.600Z,47.80
2019-03-05T15:02:02.416Z,47.90
2019-03-05T15:04:29.099Z,48.00
2019-03-05T15:06:55.453Z,47.90
2019-03-05T15:09:22.151Z,47.90
2019-03-05T15:11:48.873Z,48.00
2019-03-05T15:14:15.367Z,48.20
2019-03-05T15:16:41.661Z,48.40
2019-03-05T15:19:20.619Z,48.20
2019-03-05T15:21:36.889Z,48.30
2019-03-05T15:24:03.455Z,48.40
2019-03-05T15:26:30.171Z,48.40
2019-03-05T15:28:56.863Z,48.50
2019-03-05T15:31:23.371Z,48.50
2019-03-05T15:33:49.726Z,48.50
2019-03-05T15:36:23.669Z,48.40
2019-03-05T15:38:44.902Z,48.30
2019-03-05T15:41:11.305Z,48.20
2019-03-05T15:43:37.968Z,48.40
2019-03-05T15:46:04.372Z,48.40
2019-03-05T15:48:30.761Z,48.70
2019-03-05T15:50:57.132Z,48.80
2019-03-05T15:53:26.357Z,48.70
2019-03-05T15:55:52.706Z,48.40
2019-03-05T15:58:19.443Z,48.40
2019-03-05T16:00:46.338Z,48.70
2019-03-05T16:03:12.713Z,49.10
2019-03-05T16:05:39.506Z,49.40
2019-03-05T16:08:05.885Z,49.30
2019-03-05T16:10:32.592Z,49.00
2019-03-05T16:12:59.187Z,48.70
2019-03-05T16:15:26.071Z,48.40
2019-03-05T16:17:54.337Z,48.50
2019-03-05T16:20:20.828Z,48.90
2019-03-05T16:22:47.263Z,48.80
2019-03-05T16:25:19.266Z,48.90
2019-03-05T16:27:45.771Z,49.10
2019-03-05T16:30:45.732Z,49.10
2019-03-05T16:33:32.380Z,49.20
2019-03-05T16:36:18.931Z,49.00
2019-03-05T16:38:51.086Z,48.60
2019-03-05T16:41:32.287Z,48.20
2019-03-05T16:44:12.697Z,47.90
2019-03-05T16:46:56.398Z,47.50
2019-03-05T16:49:39.806Z,47.40
2019-03-05T16:52:11.142Z,47.20
2019-03-05T16:54:42.194Z,47.30
2019-03-05T16:57:27.293Z,47.30
2019-03-05T16:59:59.143Z,47.50
2019-03-05T17:02:27.424Z,47.50
2019-03-05T17:04:55.719Z,47.60
2019-03-05T17:07:24.394Z,47.80
2019-03-05T17:09:55.830Z,47.90
2019-03-05T17:12:23.425Z,48.00
2019-03-05T17:14:50.023Z,48.10
2019-03-05T17:17:16.490Z,48.20
2019-03-05T17:19:56.777Z,48.20
2019-03-05T17:22:25.318Z,48.30
2019-03-05T17:24:51.923Z,48.60
2019-03-05T17:27:18.598Z,48.60
2019-03-05T17:29:45.103Z,48.70
2019-03-05T17:32:12.477Z,48.80
2019-03-05T17:34:39.322Z,48.90
2019-03-05T17:37:06.922Z,48.90
2019-03-05T17:39:36.466Z,49.00
2019-03-05T17:42:02.979Z,49.10
2019-03-05T17:44:30.282Z,49.10
2019-03-05T17:46:57.118Z,49.20
2019-03-05T17:49:23.761Z,49.30
2019-03-05T17:51:50.371Z,49.30
2019-03-05T17:54:16.971Z,49.40
2019-03-05T17:56:43.886Z,49.50
2019-03-05T17:59:10.613Z,49.90
2019-03-05T18:01:37.871Z,49.80
2019-03-05T18:04:05.017Z,49.80
2019-03-05T18:06:31.514Z,50.00
2019-03-05T18:08:57.989Z,50.00
2019-03-05T18:11:25.716Z,50.00
2019-03-05T18:13:53.327Z,50.10
2019-03-05T18:16:20.053Z,50.20
2019-03-05T18:18:46.546Z,50.20
2019-03-05T18:21:12.818Z,50.30
2019-03-05T18:23:39.237Z,50.40
2019-03-05T18:26:05.616Z,50.40
2019-03-05T18:28:32.441Z,50.40
2019-03-05T18:30:58.910Z,50.50
2019-03-05T18:33:25.497Z,50.60
2019-03-05T18:35:52.236Z,50.70
2019-03-05T18:38:18.823Z,50.70
2019-03-05T18:40:45.526Z,50.70
2019-03-05T18:43:12.126Z,50.90
2019-03-05T18:45:39.294Z,50.90
2019-03-05T18:48:06.149Z,50.90
2019-03-05T18:50:33.091Z,50.90
2019-03-05T18:53:00.908Z,51.00
2019-03-05T18:55:28.208Z,51.00
2019-03-05T18:57:54.805Z,51.10
2019-03-05T19:00:22.898Z,51.10
2019-03-05T19:02:51.296Z,51.20
2019-03-05T19:05:18.177Z,51.20
2019-03-05T19:07:46.883Z,51.30
2019-03-05T19:10:19.135Z,51.40
2019-03-05T19:12:45.509Z,51.40
2019-03-05T19:15:28.708Z,51.40
2019-03-05T19:17:55.187Z,51.50
2019-03-05T19:20:41.457Z,51.50
2019-03-05T19:23:07.983Z,51.30
2019-03-05T19:25:38.206Z,51.50
2019-03-05T19:28:04.876Z,51.50
2019-03-05T19:30:34.290Z,51.50
2019-03-05T19:33:01.242Z,51.60
2019-03-05T19:35:27.730Z,51.60
2019-03-05T19:37:54.471Z,51.70
2019-03-05T19:40:29.779Z,51.70
2019-03-05T19:42:56.264Z,51.80
2019-03-05T19:45:22.858Z,51.90
2019-03-05T19:47:49.775Z,51.80
2019-03-05T19:50:21.321Z,51.90
2019-03-05T19:52:47.899Z,52.20
2019-03-05T19:55:19.853Z,52.00
2019-03-05T19:57:46.874Z,52.00
2019-03-05T20:00:17.371Z,52.10
2019-03-05T20:02:44.147Z,52.10
2019-03-05T20:05:13.250Z,52.20
2019-03-05T20:07:40.802Z,52.30
2019-03-05T20:10:11.324Z,52.30
2019-03-05T20:12:37.718Z,52.30
2019-03-05T20:15:11.080Z,52.30
2019-03-05T20:17:37.791Z,52.30
2019-03-05T20:20:06.264Z,52.30
2019-03-05T20:22:32.887Z,52.40
2019-03-05T20:24:59.294Z,52.40
2019-03-05T20:27:25.818Z,52.50
2019-03-05T20:29:52.209Z,52.50
2019-03-05T20:32:18.954Z,52.60
2019-03-05T20:34:46.678Z,52.50
2019-03-05T20:37:13.226Z,52.50
2019-03-05T20:39:39.693Z,52.50
2019-03-05T20:42:06.834Z,52.50
2019-03-05T20:44:33.409Z,52.60
2019-03-05T20:47:00.008Z,52.60
2019-03-05T20:49:27.682Z,52.70
2019-03-05T20:51:54.259Z,52.70
2019-03-05T20:54:20.778Z,52.80
2019-03-05T20:56:47.583Z,52.90
2019-03-05T20:59:14.069Z,52.90
2019-03-05T21:01:40.647Z,52.90
2019-03-05T21:04:07.280Z,53.00
2019-03-05T21:06:33.645Z,53.00
2019-03-05T21:09:00.144Z,53.00
2019-03-05T21:11:26.799Z,53.10
2019-03-05T21:13:53.192Z,53.20
2019-03-05T21:16:19.672Z,53.20
2019-03-05T21:18:46.376Z,53.30
2019-03-05T21:21:12.746Z,53.30
2019-03-05T21:23:40.703Z,53.40
2019-03-05T21:26:07.302Z,53.40
2019-03-05T21:28:33.667Z,53.40
2019-03-05T21:31:01.547Z,53.50
2019-03-05T21:33:28.488Z,53.50
2019-03-05T21:35:54.883Z,53.50
2019-03-05T21:38:21.250Z,53.50
2019-03-05T21:40:47.646Z,53.60
2019-03-05T21:43:14.124Z,53.70
2019-03-05T21:45:47.416Z,53.80
2019-03-05T21:48:14.195Z,53.80
2019-03-05T21:50:40.597Z,53.80
2019-03-05T21:53:08.350Z,53.90
2019-03-05T21:55:35.407Z,53.80
2019-03-05T21:58:02.070Z,53.70
2019-03-05T22:00:30.671Z,53.70
2019-03-05T22:02:58.839Z,53.60
2019-03-05T22:05:25.551Z,53.60
2019-03-05T22:07:52.127Z,53.60
2019-03-05T22:10:20.031Z,53.60
2019-03-05T22:12:48.220Z,53.70
2019-03-05T22:15:17.526Z,53.80
2019-03-05T22:17:44.303Z,53.80
2019-03-05T22:20:13.135Z,53.90
2019-03-05T22:22:39.711Z,54.00
2019-03-05T22:25:12.264Z,54.00
2019-03-05T22:27:38.859Z,54.20
2019-03-05T22:30:16.962Z,54.20
2019-03-05T22:32:43.850Z,54.20
2019-03-05T22:35:13.456Z,54.30
2019-03-05T22:37:39.942Z,54.30
2019-03-05T22:40:10.279Z,54.30
2019-03-05T22:42:36.856Z,54.40
2019-03-05T22:45:15.628Z,54.40
2019-03-05T22:47:42.515Z,54.40
2019-03-05T22:50:10.905Z,54.40
2019-03-05T22:52:37.407Z,54.40
2019-03-05T22:55:10.318Z,54.40
2019-03-05T22:57:36.835Z,54.50
2019-03-05T23:00:12.890Z,54.50
2019-03-05T23:02:40.386Z,54.50
2019-03-05T23:05:10.070Z,54.50
2019-03-05T23:07:36.571Z,54.50
2019-03-05T23:10:08.270Z,54.50
2019-03-05T23:12:35.366Z,54.60
2019-03-05T23:15:03.351Z,54.60
2019-03-05T23:17:31.365Z,54.60
2019-03-05T23:19:58.214Z,54.80
2019-03-05T23:22:25.151Z,54.40
2019-03-05T23:24:51.637Z,54.50
2019-03-05T23:27:18.054Z,54.50
2019-03-05T23:29:45.574Z,54.60
2019-03-05T23:32:13.886Z,54.70
2019-03-05T23:34:42.490Z,54.70
2019-03-05T23:37:08.894Z,54.70
2019-03-05T23:39:35.269Z,54.70
2019-03-05T23:42:01.744Z,54.70
2019-03-05T23:44:29.914Z,54.70
2019-03-05T23:46:56.395Z,54.70
2019-03-05T23:49:22.894Z,54.70
2019-03-05T23:51:49.726Z,54.70
2019-03-05T23:54:16.119Z,54.60
2019-03-05T23:56:42.495Z,54.50
2019-03-05T23:59:08.918Z,54.50
